createdAt,value
2019-02-07T00:02:09.496Z,31.35
2019-02-07T00:04:36.045Z,30.92
2019-02-07T00:07:02.633Z,27.87
2019-02-07T00:09:29.583Z,32.10
2019-02-07T00:11:56.175Z,33.10
2019-02-07T00:14:22.721Z,36.40
2019-02-07T00:16:49.289Z,35.98
2019-02-07T00:19:15.828Z,35.38
2019-02-07T00:21:42.401Z,33.85
2019-02-07T00:24:08.952Z,35.63
2019-02-07T00:26:35.532Z,34.73
2019-02-07T00:29:02.071Z,34.25
2019-02-07T00:31:28.638Z,34.20
2019-02-07T00:33:55.191Z,31.93
2019-02-07T00:36:22.646Z,31.68
2019-02-07T00:38:49.220Z,34.25
2019-02-07T00:41:15.784Z,34.80
2019-02-07T00:43:42.371Z,33.73
2019-02-07T00:46:09.436Z,30.10
2019-02-07T00:48:36.011Z,31.55
2019-02-07T00:51:02.581Z,29.55
2019-02-07T00:53:29.153Z,35.30
2019-02-07T00:55:55.702Z,35.92
2019-02-07T00:58:22.458Z,35.30
2019-02-07T01:00:49.007Z,33.95
2019-02-07T01:03:15.580Z,33.25
2019-02-07T01:05:42.433Z,33.30
2019-02-07T01:08:09.019Z,35.88
2019-02-07T01:10:35.567Z,31.12
2019-02-07T01:13:02.184Z,32.23
2019-02-07T01:15:28.832Z,33.53
2019-02-07T01:17:55.413Z,31.82
2019-02-07T01:20:21.950Z,32.05
2019-02-07T01:22:48.571Z,31.00
2019-02-07T01:25:17.320Z,30.32
2019-02-07T01:27:43.908Z,31.05
2019-02-07T01:30:12.443Z,31.00
2019-02-07T01:32:39.026Z,30.62
2019-02-07T01:35:05.727Z,33.33
2019-02-07T01:37:32.302Z,32.73
2019-02-07T01:39:58.855Z,30.25
2019-02-07T01:42:25.829Z,30.08
2019-02-07T01:44:52.401Z,37.40
2019-02-07T01:47:19.021Z,30.50
2019-02-07T01:49:45.587Z,31.23
2019-02-07T01:52:12.155Z,31.30
2019-02-07T01:54:38.700Z,36.40
2019-02-07T01:57:05.272Z,34.65
2019-02-07T01:59:31.842Z,33.28
2019-02-07T02:01:58.800Z,35.00
2019-02-07T02:04:25.406Z,30.08
2019-02-07T02:06:51.944Z,31.68
2019-02-07T02:09:18.509Z,34.45
2019-02-07T02:11:45.114Z,34.78
2019-02-07T02:14:11.704Z,35.43
2019-02-07T02:16:38.263Z,35.20
2019-02-07T02:19:04.861Z,35.40
2019-02-07T02:21:31.712Z,36.93
2019-02-07T02:23:58.303Z,32.93
2019-02-07T02:26:25.168Z,31.35
2019-02-07T02:28:51.753Z,34.43
2019-02-07T02:31:18.300Z,31.85
2019-02-07T02:33:44.890Z,36.53
2019-02-07T02:36:11.436Z,35.17
2019-02-07T02:38:38.007Z,31.68
2019-02-07T02:41:06.454Z,31.25
2019-02-07T02:43:33.223Z,32.75
2019-02-07T02:45:59.809Z,33.08
2019-02-07T02:48:26.371Z,33.28
2019-02-07T02:50:52.935Z,34.65
2019-02-07T02:53:19.499Z,33.00
2019-02-07T02:55:46.109Z,30.65
2019-02-07T02:58:12.678Z,27.27
2019-02-07T03:01:01.629Z,30.52
2019-02-07T03:03:42.322Z,28.23
2019-02-07T03:06:28.494Z,30.12
2019-02-07T03:09:26.457Z,32.33
2019-02-07T03:12:21.658Z,31.35
2019-02-07T03:15:06.284Z,23.80
2019-02-07T03:18:00.415Z,32.03
2019-02-07T03:20:46.604Z,22.15
2019-02-07T03:23:50.611Z,29.80
2019-02-07T03:26:45.757Z,34.63
2019-02-07T03:29:30.285Z,32.08
2019-02-07T03:32:12.422Z,32.42
2019-02-07T03:35:03.268Z,34.20
2019-02-07T03:37:48.010Z,31.20
2019-02-07T03:40:42.868Z,36.00
2019-02-07T03:43:35.079Z,31.85
2019-02-07T03:46:24.203Z,35.60
2019-02-07T03:49:16.424Z,31.07
2019-02-07T03:52:08.561Z,24.35
2019-02-07T03:55:01.043Z,33.45
2019-02-07T03:57:46.091Z,33.63
2019-02-07T04:00:47.131Z,36.33
2019-02-07T04:06:18.198Z,34.70
2019-02-07T04:09:09.125Z,33.78
2019-02-07T04:15:07.730Z,33.33
2019-02-07T04:17:59.245Z,32.40
2019-02-07T04:20:37.672Z,35.33
2019-02-07T04:23:22.322Z,35.70
2019-02-07T04:26:07.344Z,36.25
2019-02-07T04:28:52.134Z,30.55
2019-02-07T04:31:36.018Z,33.60
2019-02-07T04:34:16.326Z,37.75
2019-02-07T04:37:00.999Z,35.73
2019-02-07T04:39:52.827Z,37.15
2019-02-07T04:42:37.646Z,36.80
2019-02-07T04:45:27.416Z,34.53
2019-02-07T04:48:19.169Z,33.00
2019-02-07T04:51:08.618Z,34.55
2019-02-07T04:53:48.871Z,31.25
2019-02-07T04:56:40.892Z,26.82
2019-02-07T04:59:38.905Z,34.75
2019-02-07T05:02:34.167Z,37.90
2019-02-07T05:05:32.176Z,37.67
2019-02-07T05:08:12.926Z,34.30
2019-02-07T05:10:53.511Z,31.45
2019-02-07T05:13:36.098Z,32.98
2019-02-07T05:16:22.729Z,35.03
2019-02-07T05:19:08.918Z,36.23
2019-02-07T05:22:06.933Z,32.10
2019-02-07T05:24:53.138Z,36.60
2019-02-07T05:27:38.526Z,32.98
2019-02-07T05:30:25.795Z,37.13
2019-02-07T05:33:00.678Z,34.33
2019-02-07T05:35:55.495Z,39.70
2019-02-07T05:38:50.298Z,35.48
2019-02-07T05:41:35.436Z,31.00
2019-02-07T05:44:09.397Z,35.10
2019-02-07T05:46:55.618Z,32.70
2019-02-07T05:49:41.109Z,34.08
2019-02-07T05:52:30.296Z,36.00
2019-02-07T05:55:15.206Z,34.10
2019-02-07T05:58:00.413Z,34.75
2019-02-07T06:00:44.888Z,35.92
2019-02-07T06:03:29.889Z,35.88
2019-02-07T06:06:24.441Z,38.38
2019-02-07T06:09:07.947Z,32.38
2019-02-07T06:11:52.488Z,34.75
2019-02-07T06:14:36.926Z,28.10
2019-02-07T06:17:16.988Z,29.92
2019-02-07T06:19:54.209Z,36.63
2019-02-07T06:22:34.660Z,41.13
2019-02-07T06:25:19.508Z,44.75
2019-02-07T06:28:04.452Z,35.15
2019-02-07T06:30:53.192Z,37.80
2019-02-07T06:33:37.998Z,37.53
2019-02-07T06:36:22.685Z,42.35
2019-02-07T06:39:00.931Z,37.90
2019-02-07T06:42:05.220Z,40.15
2019-02-07T06:44:49.877Z,35.85
2019-02-07T06:47:34.641Z,42.53
2019-02-07T06:50:38.885Z,40.23
2019-02-07T06:53:37.141Z,32.63
2019-02-07T06:56:21.887Z,41.60
2019-02-07T06:59:22.921Z,39.50
2019-02-07T07:05:09.901Z,38.15
2019-02-07T07:07:54.685Z,41.53
2019-02-07T07:10:43.405Z,41.10
2019-02-07T07:13:28.815Z,47.05
2019-02-07T07:16:20.730Z,42.73
2019-02-07T07:19:05.489Z,38.95
2019-02-07T07:21:45.552Z,42.43
2019-02-07T07:24:30.317Z,46.98
2019-02-07T07:27:22.081Z,45.85
2019-02-07T07:30:20.194Z,43.95
2019-02-07T07:32:57.013Z,42.55
2019-02-07T07:35:37.975Z,39.98
2019-02-07T07:38:20.923Z,43.98
2019-02-07T07:41:05.627Z,43.02
2019-02-07T07:43:54.495Z,37.23
2019-02-07T07:46:39.557Z,51.40
2019-02-07T07:49:43.519Z,47.90
2019-02-07T07:52:28.213Z,46.73
2019-02-07T07:55:26.648Z,40.63
2019-02-07T07:58:11.414Z,48.92
2019-02-07T08:01:09.367Z,47.20
2019-02-07T08:03:54.052Z,42.98
2019-02-07T08:06:40.273Z,39.27
2019-02-07T08:09:41.439Z,49.27
2019-02-07T08:12:23.708Z,38.65
2019-02-07T08:15:08.898Z,40.90
2019-02-07T08:17:52.024Z,40.17
2019-02-07T08:20:53.242Z,38.88
2019-02-07T08:23:45.401Z,46.02
2019-02-07T08:26:43.673Z,41.90
2019-02-07T08:29:32.501Z,44.70
2019-02-07T08:32:16.916Z,38.30
2019-02-07T08:35:11.780Z,38.38
2019-02-07T08:37:46.010Z,38.98
2019-02-07T08:40:36.218Z,38.95
2019-02-07T08:43:34.173Z,40.28
2019-02-07T08:46:35.830Z,43.55
2019-02-07T08:49:20.649Z,40.55
2019-02-07T08:52:19.202Z,38.98
2019-02-07T08:55:03.924Z,42.95
2019-02-07T08:57:38.061Z,42.73
2019-02-07T09:00:28.314Z,34.98
2019-02-07T09:03:26.441Z,39.53
2019-02-07T09:06:04.561Z,39.83
2019-02-07T09:08:53.349Z,38.73
2019-02-07T09:11:39.536Z,38.98
2019-02-07T09:14:16.989Z,39.15
2019-02-07T09:16:51.371Z,47.35
2019-02-07T09:19:37.802Z,43.50
2019-02-07T09:22:13.061Z,45.70
2019-02-07T09:24:53.028Z,40.58
2019-02-07T09:27:42.297Z,31.70
2019-02-07T09:30:44.476Z,47.05
2019-02-07T09:33:42.555Z,56.63
2019-02-07T09:36:28.859Z,52.10
2019-02-07T09:39:15.044Z,49.25
2019-02-07T09:42:04.057Z,44.10
2019-02-07T09:44:50.562Z,45.88
2019-02-07T09:47:25.786Z,48.45
2019-02-07T09:50:08.275Z,51.05
2019-02-07T09:52:53.219Z,51.20
2019-02-07T09:55:48.035Z,55.70
2019-02-07T09:58:46.682Z,56.65
2019-02-07T10:01:35.457Z,50.00
2019-02-07T10:04:20.558Z,54.35
2019-02-07T10:06:55.438Z,54.93
2019-02-07T10:09:35.315Z,52.25
2019-02-07T10:12:21.810Z,54.85
2019-02-07T10:15:06.382Z,52.62
2019-02-07T10:17:44.935Z,51.20
2019-02-07T10:20:29.696Z,60.05
2019-02-07T10:23:16.981Z,56.60
2019-02-07T10:26:07.721Z,56.35
2019-02-07T10:28:53.905Z,40.67
2019-02-07T10:31:34.684Z,65.87
2019-02-07T10:34:18.792Z,52.25
2019-02-07T10:37:19.735Z,58.38
2019-02-07T10:42:48.498Z,51.50
2019-02-07T10:45:39.477Z,46.70
2019-02-07T10:48:24.143Z,47.40
2019-02-07T10:51:10.364Z,51.58
2019-02-07T10:53:59.549Z,51.08
2019-02-07T10:56:36.709Z,51.45
2019-02-07T10:59:28.899Z,49.67
2019-02-07T11:02:13.461Z,49.83
2019-02-07T11:04:57.928Z,45.88
2019-02-07T11:07:44.990Z,52.53
2019-02-07T11:10:27.581Z,44.63
2019-02-07T11:13:15.229Z,50.08
2019-02-07T11:16:10.186Z,37.90
2019-02-07T11:18:57.105Z,40.85
2019-02-07T11:21:43.326Z,44.40
2019-02-07T11:24:25.225Z,43.23
2019-02-07T11:27:09.685Z,41.05
2019-02-07T11:29:54.204Z,46.30
2019-02-07T11:32:39.952Z,45.60
2019-02-07T11:35:21.137Z,39.18
2019-02-07T11:37:56.767Z,38.20
2019-02-07T11:40:46.061Z,38.98
2019-02-07T11:43:37.062Z,35.40
2019-02-07T11:46:23.234Z,33.75
2019-02-07T11:49:06.832Z,29.98
2019-02-07T11:51:59.390Z,33.55
2019-02-07T11:54:55.327Z,29.32
2019-02-07T11:57:38.292Z,28.65
2019-02-07T12:00:27.987Z,28.40
2019-02-07T12:03:14.181Z,31.35
2019-02-07T12:05:58.854Z,22.50
2019-02-07T12:08:48.123Z,29.12
2019-02-07T12:11:49.261Z,29.45
2019-02-07T12:14:38.270Z,27.77
2019-02-07T12:17:23.126Z,26.65
2019-02-07T12:20:10.190Z,26.00
2019-02-07T12:22:56.386Z,24.32
2019-02-07T12:25:39.411Z,20.02
2019-02-07T12:28:21.423Z,21.90
2019-02-07T12:30:57.884Z,24.47
2019-02-07T12:33:49.696Z,20.60
2019-02-07T12:36:30.192Z,21.17
2019-02-07T12:39:28.817Z,19.55
2019-02-07T12:42:06.417Z,17.90
2019-02-07T12:44:58.647Z,20.30
2019-02-07T12:47:43.317Z,20.50
2019-02-07T12:50:27.775Z,17.90
2019-02-07T12:53:13.965Z,19.55
2019-02-07T12:55:58.499Z,20.55
2019-02-07T12:58:43.636Z,19.77
2019-02-07T13:01:23.701Z,17.87
2019-02-07T13:04:09.913Z,16.82
2019-02-07T13:06:45.032Z,17.73
2019-02-07T13:09:29.775Z,16.37
2019-02-07T13:12:12.631Z,17.25
2019-02-07T13:14:49.922Z,20.20
2019-02-07T13:17:44.143Z,17.95
2019-02-07T13:20:30.022Z,18.45
2019-02-07T13:23:19.659Z,22.35
2019-02-07T13:25:59.743Z,20.27
2019-02-07T13:28:46.941Z,21.15
2019-02-07T13:31:33.230Z,19.92
2019-02-07T13:34:18.176Z,21.10
2019-02-07T13:37:04.284Z,19.70
2019-02-07T13:39:56.630Z,20.23
2019-02-07T13:42:36.580Z,17.35
2019-02-07T13:45:22.097Z,18.85
2019-02-07T13:48:06.640Z,18.73
2019-02-07T13:51:10.962Z,15.65
2019-02-07T13:54:03.416Z,17.52
2019-02-07T13:56:49.616Z,19.50
2019-02-07T13:59:34.817Z,19.57
2019-02-07T14:02:21.025Z,18.30
2019-02-07T14:05:05.867Z,19.52
2019-02-07T14:07:42.609Z,19.25
2019-02-07T14:10:29.332Z,21.52
2019-02-07T14:13:13.899Z,25.17
2019-02-07T14:16:18.325Z,20.97
2019-02-07T14:19:10.315Z,23.05
2019-02-07T14:22:11.777Z,20.48
2019-02-07T14:24:48.778Z,23.12
2019-02-07T14:27:33.456Z,23.65
2019-02-07T14:30:25.647Z,22.60
2019-02-07T14:33:17.862Z,26.42
2019-02-07T14:36:05.258Z,25.20
2019-02-07T14:38:49.903Z,24.75
2019-02-07T14:41:39.908Z,28.73
2019-02-07T14:44:18.800Z,26.27
2019-02-07T14:46:47.825Z,26.87
2019-02-07T14:49:14.622Z,27.17
2019-02-07T14:51:41.172Z,28.45
2019-02-07T14:54:07.754Z,27.32
2019-02-07T14:56:34.306Z,31.45
2019-02-07T14:59:01.452Z,30.32
2019-02-07T15:01:28.201Z,26.02
2019-02-07T15:03:54.730Z,32.25
2019-02-07T15:06:21.289Z,35.03
2019-02-07T15:08:47.877Z,30.92
2019-02-07T15:11:14.424Z,32.13
2019-02-07T15:13:40.964Z,31.93
2019-02-07T15:16:07.567Z,33.88
2019-02-07T15:18:34.113Z,31.45
2019-02-07T15:21:00.717Z,34.18
2019-02-07T15:23:27.558Z,32.55
2019-02-07T15:25:54.103Z,29.23
2019-02-07T15:28:21.295Z,33.00
2019-02-07T15:30:47.821Z,38.25
2019-02-07T15:33:14.379Z,31.37
2019-02-07T15:35:43.556Z,34.18
2019-02-07T15:38:10.126Z,37.25
2019-02-07T15:40:36.693Z,33.83
2019-02-07T15:43:03.316Z,32.33
2019-02-07T15:45:29.858Z,36.95
2019-02-07T15:47:56.420Z,31.77
2019-02-07T15:50:23.392Z,34.88
2019-02-07T15:52:52.100Z,33.55
2019-02-07T15:55:18.878Z,39.83
2019-02-07T15:57:45.448Z,38.08
2019-02-07T16:00:29.689Z,39.78
2019-02-07T16:03:00.205Z,37.85
2019-02-07T16:05:27.152Z,35.98
2019-02-07T16:07:53.737Z,37.75
2019-02-07T16:10:20.289Z,40.23
2019-02-07T16:12:46.890Z,32.55
2019-02-07T16:15:13.486Z,36.45
2019-02-07T16:17:40.105Z,39.48
2019-02-07T16:20:10.706Z,37.30
2019-02-07T16:22:37.278Z,40.08
2019-02-07T16:25:04.713Z,36.42
2019-02-07T16:27:31.273Z,37.98
2019-02-07T16:29:57.911Z,42.00
2019-02-07T16:32:24.489Z,51.85
2019-02-07T16:34:50.997Z,38.67
2019-02-07T16:37:17.577Z,37.03
2019-02-07T16:39:44.126Z,39.90
2019-02-07T16:42:11.803Z,36.88
2019-02-07T16:44:38.354Z,41.50
2019-02-07T16:47:04.983Z,41.98
2019-02-07T16:49:31.520Z,47.93
2019-02-07T16:51:58.065Z,39.35
2019-02-07T16:54:24.630Z,40.45
2019-02-07T16:56:51.197Z,40.03
2019-02-07T16:59:17.774Z,43.33
2019-02-07T17:01:44.739Z,41.42
2019-02-07T17:04:11.318Z,38.88
2019-02-07T17:06:37.900Z,48.25
2019-02-07T17:09:09.362Z,39.00
2019-02-07T17:11:35.932Z,35.08
2019-02-07T17:14:02.500Z,34.90
2019-02-07T17:16:29.078Z,35.68
2019-02-07T17:18:55.654Z,37.53
2019-02-07T17:21:22.197Z,37.48
2019-02-07T17:23:48.762Z,43.55
2019-02-07T17:26:15.335Z,37.78
2019-02-07T17:28:42.210Z,40.30
2019-02-07T17:31:08.764Z,41.02
2019-02-07T17:33:35.329Z,39.67
2019-02-07T17:36:01.874Z,39.00
2019-02-07T17:38:29.652Z,37.70
2019-02-07T17:40:56.210Z,41.30
2019-02-07T17:43:22.785Z,39.00
2019-02-07T17:45:49.347Z,44.03
2019-02-07T17:48:15.930Z,37.10
2019-02-07T17:50:42.488Z,35.43
2019-02-07T17:53:09.083Z,38.75
2019-02-07T17:55:35.641Z,28.67
2019-02-07T17:58:02.303Z,32.50
2019-02-07T18:00:40.554Z,30.82
2019-02-07T18:03:07.106Z,32.70
2019-02-07T18:05:33.690Z,34.10
2019-02-07T18:08:00.375Z,34.18
2019-02-07T18:10:28.706Z,32.35
2019-02-07T18:12:55.373Z,32.25
2019-02-07T18:15:22.240Z,32.05
2019-02-07T18:17:48.819Z,33.88
2019-02-07T18:20:15.588Z,29.85
2019-02-07T18:22:42.236Z,25.75
2019-02-07T18:25:08.813Z,31.25
2019-02-07T18:27:35.354Z,34.08
2019-02-07T18:30:01.942Z,36.63
2019-02-07T18:32:28.494Z,29.95
2019-02-07T18:34:55.365Z,34.65
2019-02-07T18:37:21.909Z,33.63
2019-02-07T18:39:48.472Z,34.92
2019-02-07T18:42:15.025Z,33.33
2019-02-07T18:44:41.611Z,36.13
2019-02-07T18:47:08.153Z,39.40
2019-02-07T18:49:34.724Z,31.77
2019-02-07T18:52:01.282Z,30.00
2019-02-07T18:54:28.186Z,37.63
2019-02-07T18:56:57.118Z,28.00
2019-02-07T18:59:23.676Z,32.88
2019-02-07T19:01:50.238Z,30.60
2019-02-07T19:04:16.806Z,31.70
2019-02-07T19:06:43.379Z,34.88
2019-02-07T19:09:09.948Z,32.67
2019-02-07T19:11:36.498Z,33.95
2019-02-07T19:14:03.468Z,32.00
2019-02-07T19:16:30.012Z,37.65
2019-02-07T19:18:56.593Z,35.83
2019-02-07T19:21:23.154Z,33.73
2019-02-07T19:23:49.720Z,31.93
2019-02-07T19:26:16.366Z,37.17
2019-02-07T19:28:42.912Z,32.00
2019-02-07T19:31:09.487Z,30.90
2019-02-07T19:33:36.029Z,34.27
2019-02-07T19:36:02.808Z,33.90
2019-02-07T19:38:29.341Z,31.02
2019-02-07T19:40:55.913Z,34.98
2019-02-07T19:43:22.474Z,36.88
2019-02-07T19:45:54.894Z,32.53
2019-02-07T19:48:21.484Z,32.33
2019-02-07T19:50:48.069Z,32.98
2019-02-07T19:53:15.013Z,39.50
2019-02-07T19:55:41.574Z,36.15
2019-02-07T19:58:08.121Z,29.27
2019-02-07T20:00:34.691Z,32.05
2019-02-07T20:03:01.322Z,32.08
2019-02-07T20:05:27.918Z,33.65
2019-02-07T20:07:54.468Z,32.70
2019-02-07T20:10:21.955Z,31.70
2019-02-07T20:12:48.897Z,35.88
2019-02-07T20:15:18.690Z,31.52
2019-02-07T20:17:45.229Z,30.20
2019-02-07T20:20:12.049Z,25.15
2019-02-07T20:22:38.617Z,28.20
2019-02-07T20:25:06.454Z,22.50
2019-02-07T20:27:33.045Z,23.02
2019-02-07T20:29:59.589Z,22.00
2019-02-07T20:32:26.175Z,18.32
2019-02-07T20:34:53.134Z,21.65
2019-02-07T20:37:19.698Z,16.75
2019-02-07T20:39:46.247Z,18.65
2019-02-07T20:42:12.810Z,17.23
2019-02-07T20:44:39.388Z,14.38
2019-02-07T20:47:05.920Z,17.12
2019-02-07T20:49:32.456Z,16.48
2019-02-07T20:51:59.016Z,15.05
2019-02-07T20:54:25.566Z,17.15
2019-02-07T20:56:52.531Z,16.20
2019-02-07T20:59:19.086Z,16.15
2019-02-07T21:01:45.641Z,14.50
2019-02-07T21:04:12.185Z,16.62
2019-02-07T21:06:38.767Z,12.10
2019-02-07T21:09:07.285Z,15.55
2019-02-07T21:11:33.851Z,8.88
2019-02-07T21:14:00.397Z,10.65
2019-02-07T21:16:26.954Z,12.03
2019-02-07T21:18:53.942Z,10.08
2019-02-07T21:21:20.481Z,14.65
2019-02-07T21:23:47.049Z,10.48
2019-02-07T21:26:13.614Z,13.78
2019-02-07T21:28:40.176Z,12.53
2019-02-07T21:31:07.124Z,13.13
2019-02-07T21:33:33.697Z,17.10
2019-02-07T21:36:00.259Z,15.08
2019-02-07T21:38:26.822Z,16.15
2019-02-07T21:40:55.119Z,12.15
2019-02-07T21:43:21.695Z,12.73
2019-02-07T21:45:48.231Z,16.02
2019-02-07T21:48:14.805Z,15.50
2019-02-07T21:50:41.357Z,14.10
2019-02-07T21:53:07.923Z,10.45
2019-02-07T21:55:34.563Z,9.80
2019-02-07T21:58:01.116Z,11.65
2019-02-07T22:00:30.503Z,12.20
2019-02-07T22:02:57.081Z,6.20
2019-02-07T22:05:23.624Z,6.05
2019-02-07T22:07:50.190Z,7.17
2019-02-07T22:10:16.797Z,11.57
2019-02-07T22:12:43.354Z,9.10
2019-02-07T22:15:12.635Z,5.92
2019-02-07T22:17:39.186Z,11.45
2019-02-07T22:20:10.092Z,15.10
2019-02-07T22:22:36.629Z,10.80
2019-02-07T22:25:03.501Z,9.50
2019-02-07T22:27:30.052Z,12.20
2019-02-07T22:29:56.625Z,10.28
2019-02-07T22:32:23.161Z,10.88
2019-02-07T22:34:49.722Z,16.27
2019-02-07T22:37:16.380Z,14.15
2019-02-07T22:39:42.950Z,5.20
2019-02-07T22:42:09.491Z,11.05
2019-02-07T22:44:36.066Z,16.07
2019-02-07T22:47:02.608Z,22.02
2019-02-07T22:49:29.185Z,10.05
2019-02-07T22:51:57.818Z,11.03
2019-02-07T22:54:24.377Z,9.78
2019-02-07T22:56:50.930Z,8.25
2019-02-07T22:59:17.484Z,11.25
2019-02-07T23:01:49.290Z,10.38
2019-02-07T23:04:16.374Z,5.87
2019-02-07T23:06:42.941Z,9.45
2019-02-07T23:09:10.592Z,8.60
2019-02-07T23:11:37.369Z,7.08
2019-02-07T23:14:04.075Z,18.80
2019-02-07T23:16:30.620Z,11.33
2019-02-07T23:18:57.172Z,10.63
2019-02-07T23:21:23.750Z,10.75
2019-02-07T23:23:50.302Z,9.93
2019-02-07T23:26:16.863Z,17.12
2019-02-07T23:28:43.417Z,9.55
2019-02-07T23:31:09.999Z,8.58
2019-02-07T23:33:36.803Z,11.65
2019-02-07T23:36:04.433Z,9.43
2019-02-07T23:38:30.972Z,6.90
2019-02-07T23:40:57.539Z,10.10
2019-02-07T23:43:24.092Z,6.85
2019-02-07T23:45:50.648Z,11.55
2019-02-07T23:48:17.191Z,11.38
2019-02-07T23:50:43.750Z,11.45
2019-02-07T23:53:15.362Z,7.70
2019-02-07T23:55:38.781Z,6.17
2019-02-07T23:58:05.305Z,8.90
